Time;durP1;ratioP1;P1;durP2;ratioP2;P2;SDS_P1;SDS_P2;PMS_P1;PMS_P2;Temp;Humidity;BMP_temperature;BMP_pressure;BME280_temperature;BME280_humidity;BME280_pressure;Samples;Min_cycle;Max_cycle;Signal;HPM_P1;HPM_P2
2022/08/05 12:42:21;;;;;;;4.65;3.00;;;;;;;;;;5094829;28;20378;-79
2022/08/05 12:44:47;;;;;;;5.78;2.92;;;;;;;;;;5094487;28;20066;-79
2022/08/05 12:47:14;;;;;;;7.30;3.42;;;;;;;;;;5094409;28;20024;-79
2022/08/05 12:49:43;;;;;;;5.40;3.10;;;;;;;;;;5094371;28;20020;-79
2022/08/05 12:52:14;;;;;;;69.78;8.10;;;;;;;;;;5093342;28;20020;-78
2022/08/05 12:54:40;;;;;;;4.68;3.60;;;;;;;;;;5094423;28;20349;-78
2022/08/05 12:57:07;;;;;;;4.63;3.28;;;;;;;;;;5094118;28;20035;-78
2022/08/05 12:59:43;;;;;;;4.35;2.95;;;;;;;;;;5094458;28;20024;-78
2022/08/05 13:02:10;;;;;;;4.53;2.90;;;;;;;;;;5094394;28;20028;-78
2022/08/05 13:04:37;;;;;;;7.15;2.85;;;;;;;;;;5093122;28;20450;-77
2022/08/05 13:07:06;;;;;;;3.50;2.80;;;;;;;;;;5094111;28;20032;-78
2022/08/05 13:09:32;;;;;;;4.72;3.00;;;;;;;;;;5094179;28;20024;-77
2022/08/05 13:12:03;;;;;;;4.35;3.20;;;;;;;;;;5094358;28;20414;-77
2022/08/05 13:14:29;;;;;;;9.20;3.13;;;;;;;;;;5094245;28;20032;-77
2022/08/05 13:16:55;;;;;;;5.55;2.95;;;;;;;;;;5092877;28;20029;-77
2022/08/05 13:19:23;;;;;;;3.75;3.03;;;;;;;;;;5092827;28;20067;-78
2022/08/05 13:21:49;;;;;;;4.93;2.70;;;;;;;;;;5093659;28;20021;-77
2022/08/05 13:24:15;;;;;;;3.13;2.50;;;;;;;;;;5093657;28;20284;-77
2022/08/05 13:26:42;;;;;;;3.67;2.70;;;;;;;;;;5093757;28;20035;-78
2022/08/05 13:29:08;;;;;;;7.80;2.83;;;;;;;;;;5093769;28;20063;-77
2022/08/05 13:31:34;;;;;;;5.95;2.80;;;;;;;;;;5093902;28;20024;-77
2022/08/05 13:34:00;;;;;;;4.03;2.70;;;;;;;;;;5093776;28;20029;-81
2022/08/05 13:36:26;;;;;;;3.30;2.80;;;;;;;;;;5083690;28;20056;-79
2022/08/05 13:38:52;;;;;;;4.55;2.70;;;;;;;;;;5073761;28;20020;-78
2022/08/05 13:41:19;;;;;;;2.83;2.60;;;;;;;;;;5088501;28;20128;-79
2022/08/05 13:43:45;;;;;;;5.53;2.75;;;;;;;;;;5091360;28;20052;-82
2022/08/05 13:46:11;;;;;;;3.65;2.70;;;;;;;;;;5092382;28;20079;-80
2022/08/05 13:48:37;;;;;;;3.83;2.83;;;;;;;;;;5093101;28;20482;-80
2022/08/05 13:51:12;;;;;;;7.03;3.08;;;;;;;;;;5092048;28;20406;-80
2022/08/05 13:53:38;;;;;;;3.50;2.80;;;;;;;;;;5078527;28;20028;-80
2022/08/05 13:56:04;;;;;;;6.10;2.70;;;;;;;;;;5078265;28;20044;-79
2022/08/05 13:58:31;;;;;;;5.40;2.97;;;;;;;;;;5079560;28;20031;-80
2022/08/05 14:00:57;;;;;;;3.33;2.60;;;;;;;;;;5078234;28;20341;-80
2022/08/05 14:03:23;;;;;;;3.58;2.40;;;;;;;;;;5079521;28;20028;-80
2022/08/05 14:05:49;;;;;;;4.35;2.95;;;;;;;;;;5079472;28;20020;-80
2022/08/05 14:08:15;;;;;;;7.28;2.63;;;;;;;;;;5079319;28;20024;-80
2022/08/05 14:10:42;;;;;;;7.10;2.78;;;;;;;;;;5079393;28;20099;-80
2022/08/05 14:13:08;;;;;;;5.85;2.70;;;;;;;;;;5077846;28;20044;-80
2022/08/05 14:15:34;;;;;;;5.55;2.42;;;;;;;;;;5077440;28;20024;-79
2022/08/05 14:18:00;;;;;;;3.72;2.33;;;;;;;;;;5079360;28;20036;-80
2022/08/05 14:20:28;;;;;;;4.00;2.15;;;;;;;;;;5077067;28;20060;-80
2022/08/05 14:22:54;;;;;;;3.00;2.40;;;;;;;;;;5079172;28;20029;-80
2022/08/05 14:25:20;;;;;;;4.75;2.42;;;;;;;;;;5078998;28;20021;-80
2022/08/05 14:27:50;;;;;;;3.83;2.40;;;;;;;;;;5079357;28;20043;-80
2022/08/05 14:30:17;;;;;;;6.07;2.63;;;;;;;;;;5077979;28;20441;-80
2022/08/05 14:32:43;;;;;;;5.22;2.55;;;;;;;;;;5077854;28;20028;-80
2022/08/05 14:35:11;;;;;;;9.07;2.50;;;;;;;;;;5077909;28;20597;-80
2022/08/05 14:37:37;;;;;;;4.25;2.58;;;;;;;;;;5078750;28;20028;-80
2022/08/05 14:40:03;;;;;;;5.43;2.88;;;;;;;;;;5078794;28;20028;-80
2022/08/05 14:42:29;;;;;;;2.67;2.42;;;;;;;;;;5077223;28;20035;-80
2022/08/05 14:44:55;;;;;;;3.67;2.40;;;;;;;;;;5078806;28;20025;-80
2022/08/05 14:47:21;;;;;;;2.22;2.03;;;;;;;;;;5078675;28;20020;-80
2022/08/05 14:49:47;;;;;;;4.78;2.40;;;;;;;;;;5078765;28;20020;-80
2022/08/05 14:52:13;;;;;;;4.68;2.10;;;;;;;;;;5078885;28;20025;-81
2022/08/05 14:54:39;;;;;;;2.70;2.10;;;;;;;;;;5078569;28;20020;-80
2022/08/05 14:57:05;;;;;;;3.80;2.15;;;;;;;;;;5078815;28;20371;-80
2022/08/05 14:59:32;;;;;;;3.63;2.40;;;;;;;;;;5078511;28;20430;-80
2022/08/05 15:01:58;;;;;;;2.42;2.13;;;;;;;;;;5078544;28;20043;-80
2022/08/05 15:04:24;;;;;;;4.63;2.17;;;;;;;;;;5077598;28;20025;-80
2022/08/05 15:06:50;;;;;;;4.57;2.53;;;;;;;;;;5078400;28;20017;-80
2022/08/05 15:09:17;;;;;;;6.38;3.25;;;;;;;;;;5078271;28;20025;-80
2022/08/05 15:11:43;;;;;;;5.50;3.22;;;;;;;;;;5078659;28;20037;-80
2022/08/05 15:14:09;;;;;;;15.82;2.90;;;;;;;;;;5078390;28;20028;-80
2022/08/05 15:16:36;;;;;;;3.45;2.58;;;;;;;;;;5078342;28;20040;-80
2022/08/05 15:19:02;;;;;;;5.88;2.60;;;;;;;;;;5078149;28;20115;-80
2022/08/05 15:21:28;;;;;;;3.90;2.40;;;;;;;;;;5078008;28;20025;-80
2022/08/05 15:23:54;;;;;;;4.10;2.38;;;;;;;;;;5077961;28;20021;-80
2022/08/05 15:26:20;;;;;;;4.15;3.22;;;;;;;;;;5078000;28;20131;-80
2022/08/05 15:28:46;;;;;;;5.32;3.88;;;;;;;;;;5078196;28;20100;-80
2022/08/05 15:31:12;;;;;;;5.15;2.10;;;;;;;;;;5077727;28;20029;-80
2022/08/05 15:33:38;;;;;;;19.33;13.13;;;;;;;;;;5074147;28;20437;-79
2022/08/05 15:36:04;;;;;;;7.53;5.03;;;;;;;;;;5075293;28;20300;-79
2022/08/05 15:38:33;;;;;;;3.50;2.42;;;;;;;;;;5076497;28;20039;-80
2022/08/05 15:40:59;;;;;;;3.35;3.00;;;;;;;;;;5075563;28;20349;-79
2022/08/05 15:43:26;;;;;;;6.70;2.75;;;;;;;;;;5077421;28;20096;-79
2022/08/05 15:45:52;;;;;;;7.32;3.80;;;;;;;;;;5077880;28;20043;-79
2022/08/05 15:48:19;;;;;;;16.55;11.13;;;;;;;;;;5077418;28;20028;-80
2022/08/05 15:50:46;;;;;;;5.15;3.40;;;;;;;;;;5074620;28;20361;-79
2022/08/05 15:53:13;;;;;;;10.90;6.88;;;;;;;;;;5075914;28;20028;-79
2022/08/05 15:55:39;;;;;;;9.60;6.32;;;;;;;;;;5077445;28;20024;-80
2022/08/05 15:58:05;;;;;;;5.88;3.58;;;;;;;;;;5075187;28;20067;-80
2022/08/05 16:00:31;;;;;;;4.95;3.92;;;;;;;;;;5056998;28;20044;-79
2022/08/05 16:02:57;;;;;;;8.52;5.25;;;;;;;;;;5057412;28;20017;-79
2022/08/05 16:05:23;;;;;;;8.43;5.63;;;;;;;;;;5057161;28;20096;-83
2022/08/05 16:07:49;;;;;;;6.97;4.70;;;;;;;;;;5070739;28;20025;-79
2022/08/05 16:10:15;;;;;;;11.45;8.00;;;;;;;;;;5056728;28;20028;-79
2022/08/05 16:12:41;;;;;;;8.73;4.32;;;;;;;;;;5065259;28;20021;-79
2022/08/05 16:15:09;;;;;;;7.05;4.28;;;;;;;;;;5076912;28;20029;-79
2022/08/05 16:17:35;;;;;;;5.25;4.68;;;;;;;;;;5077134;28;20039;-78
2022/08/05 16:20:01;;;;;;;6.15;2.83;;;;;;;;;;5072049;28;20316;-78
2022/08/05 16:22:27;;;;;;;6.60;2.92;;;;;;;;;;5076860;28;20406;-79
2022/08/05 16:24:53;;;;;;;5.25;2.53;;;;;;;;;;5075420;28;20445;-79
2022/08/05 16:27:19;;;;;;;11.98;8.70;;;;;;;;;;5076849;28;20031;-79
2022/08/05 16:29:45;;;;;;;6.60;3.95;;;;;;;;;;5076969;28;20028;-79
2022/08/05 16:32:11;;;;;;;5.75;3.35;;;;;;;;;;5073156;28;20028;-79
2022/08/05 16:34:37;;;;;;;7.07;4.28;;;;;;;;;;5056733;28;20441;-79
2022/08/05 16:37:04;;;;;;;7.00;5.15;;;;;;;;;;5056770;28;20116;-79
2022/08/05 16:39:30;;;;;;;4.60;4.20;;;;;;;;;;5055820;28;20021;-79
2022/08/05 16:41:56;;;;;;;5.25;3.53;;;;;;;;;;5056328;28;20053;-88
2022/08/05 16:44:23;;;;;;;8.50;4.53;;;;;;;;;;5076794;28;20027;-79
2022/08/05 16:46:50;;;;;;;8.88;4.93;;;;;;;;;;5076599;28;20024;-78
2022/08/05 16:49:16;;;;;;;6.88;3.05;;;;;;;;;;5076919;28;20025;-78
2022/08/05 16:51:43;;;;;;;12.60;8.07;;;;;;;;;;5076793;28;20070;-79
2022/08/05 16:54:10;;;;;;;14.48;8.25;;;;;;;;;;5075486;28;20031;-78
2022/08/05 16:56:37;;;;;;;12.95;8.50;;;;;;;;;;5076615;28;20048;-78
2022/08/05 16:59:04;;;;;;;17.38;13.02;;;;;;;;;;5076168;28;20094;-79
2022/08/05 17:01:30;;;;;;;19.05;16.35;;;;;;;;;;5076403;28;20035;-78
2022/08/05 17:03:56;;;;;;;13.38;5.68;;;;;;;;;;5075178;28;20020;-79
2022/08/05 17:06:22;;;;;;;8.60;5.72;;;;;;;;;;5076357;28;20085;-79
2022/08/05 17:08:48;;;;;;;33.10;23.08;;;;;;;;;;5076164;28;20494;-79
2022/08/05 17:11:15;;;;;;;25.95;19.92;;;;;;;;;;5075983;28;20064;-79
2022/08/05 17:13:41;;;;;;;11.90;6.05;;;;;;;;;;5076347;28;20078;-79
2022/08/05 17:16:07;;;;;;;11.95;4.50;;;;;;;;;;5076496;28;20037;-79
2022/08/05 17:18:33;;;;;;;16.67;7.22;;;;;;;;;;5066779;28;20075;-79
2022/08/05 17:20:59;;;;;;;14.77;7.40;;;;;;;;;;5070184;28;20346;-79
2022/08/05 17:23:25;;;;;;;15.55;7.53;;;;;;;;;;5075441;28;20029;-78
2022/08/05 17:25:51;;;;;;;15.27;5.43;;;;;;;;;;5074954;28;20040;-77
2022/08/05 17:28:17;;;;;;;18.27;6.28;;;;;;;;;;5075809;28;20107;-78
2022/08/05 17:30:43;;;;;;;17.80;8.52;;;;;;;;;;5080289;28;20056;-78
2022/08/05 17:33:09;;;;;;;21.83;9.20;;;;;;;;;;5080041;28;20306;-78
2022/08/05 17:35:35;;;;;;;17.77;6.68;;;;;;;;;;5080138;28;20024;-78
2022/08/05 17:38:05;;;;;;;17.73;5.88;;;;;;;;;;5080085;28;20025;-78
2022/08/05 17:40:31;;;;;;;21.60;8.67;;;;;;;;;;5079621;28;20055;-78
2022/08/05 17:42:57;;;;;;;24.75;9.23;;;;;;;;;;5080123;28;20250;-78
2022/08/05 17:45:24;;;;;;;25.45;13.10;;;;;;;;;;5080036;28;20021;-78
2022/08/05 17:47:50;;;;;;;26.05;9.95;;;;;;;;;;5078717;28;20324;-78
2022/08/05 17:50:17;;;;;;;22.38;10.55;;;;;;;;;;5078878;28;20391;-78
2022/08/05 17:52:43;;;;;;;26.75;12.32;;;;;;;;;;5078623;28;20040;-78
2022/08/05 17:55:10;;;;;;;27.02;10.65;;;;;;;;;;5079585;28;20016;-78
2022/08/05 17:57:40;;;;;;;30.85;7.63;;;;;;;;;;5078624;28;20043;-78
2022/08/05 18:00:07;;;;;;;23.58;10.32;;;;;;;;;;5079441;28;20410;-78
2022/08/05 18:02:33;;;;;;;20.83;4.65;;;;;;;;;;5079508;28;20295;-78
2022/08/05 18:05:02;;;;;;;26.60;8.93;;;;;;;;;;5079717;28;20067;-78
2022/08/05 18:07:28;;;;;;;25.17;12.02;;;;;;;;;;5078504;28;20031;-78
2022/08/05 18:09:54;;;;;;;12.50;6.82;;;;;;;;;;5079273;28;20024;-78
2022/08/05 18:12:20;;;;;;;12.18;5.18;;;;;;;;;;5079524;28;20303;-78
2022/08/05 18:14:46;;;;;;;15.82;8.60;;;;;;;;;;5079428;28;20086;-78
2022/08/05 18:17:12;;;;;;;14.25;7.13;;;;;;;;;;5075817;28;20370;-79
2022/08/05 18:19:38;;;;;;;37.60;23.40;;;;;;;;;;5077960;28;20025;-79
2022/08/05 18:22:04;;;;;;;81.95;59.80;;;;;;;;;;5077577;28;20037;-79
2022/08/05 18:24:30;;;;;;;65.00;49.67;;;;;;;;;;5079323;28;20406;-79
2022/08/05 18:26:56;;;;;;;103.20;76.32;;;;;;;;;;5077482;28;20032;-79
2022/08/05 18:29:22;;;;;;;116.93;95.45;;;;;;;;;;5078145;28;20322;-79
2022/08/05 18:31:48;;;;;;;62.28;43.38;;;;;;;;;;5077299;28;20043;-79
2022/08/05 18:34:14;;;;;;;89.57;69.57;;;;;;;;;;5077593;28;20301;-79
2022/08/05 18:36:41;;;;;;;70.72;52.55;;;;;;;;;;5078808;28;20362;-79
2022/08/05 18:39:07;;;;;;;95.00;77.68;;;;;;;;;;5078669;28;20058;-79
2022/08/05 18:41:33;;;;;;;94.07;76.45;;;;;;;;;;5078271;28;20152;-79
2022/08/05 18:43:59;;;;;;;50.33;38.65;;;;;;;;;;5078784;28;20024;-79
2022/08/05 18:46:26;;;;;;;121.63;96.22;;;;;;;;;;5076893;28;20020;-79
2022/08/05 18:48:52;;;;;;;45.53;32.28;;;;;;;;;;5078694;28;20028;-79
2022/08/05 18:54:07;;;;;;;133.50;102.70;;;;;;;;;;5078671;28;20128;-81
2022/08/05 18:56:34;;;;;;;162.23;124.53;;;;;;;;;;5078793;28;20059;-83
2022/08/05 18:59:00;;;;;;;138.35;101.63;;;;;;;;;;5078610;28;20034;-82
2022/08/05 19:01:27;;;;;;;119.63;96.57;;;;;;;;;;5078701;28;20021;-83
2022/08/05 19:03:53;;;;;;;126.15;97.35;;;;;;;;;;5078722;28;20072;-83
2022/08/05 19:06:19;;;;;;;122.65;94.53;;;;;;;;;;5078546;28;20025;-82
2022/08/05 19:08:45;;;;;;;112.78;88.65;;;;;;;;;;5078360;28;20070;-82
2022/08/05 19:11:11;;;;;;;105.25;80.72;;;;;;;;;;5077429;28;20081;-82
2022/08/05 19:13:37;;;;;;;85.82;60.53;;;;;;;;;;5078447;28;20032;-83
2022/08/05 19:16:04;;;;;;;51.13;36.92;;;;;;;;;;5077239;28;20028;-82
2022/08/05 19:18:31;;;;;;;36.45;25.60;;;;;;;;;;5078296;28;20434;-82
2022/08/05 19:20:58;;;;;;;59.45;45.75;;;;;;;;;;5076683;28;20035;-82
2022/08/05 19:23:24;;;;;;;26.60;17.00;;;;;;;;;;5077103;28;20020;-82
2022/08/05 19:25:52;;;;;;;31.02;23.33;;;;;;;;;;5077950;28;20024;-82
2022/08/05 19:28:18;;;;;;;60.67;48.42;;;;;;;;;;5078008;28;20141;-81
2022/08/05 19:30:44;;;;;;;68.72;51.90;;;;;;;;;;5078084;28;20063;-82
2022/08/05 19:33:10;;;;;;;54.83;36.83;;;;;;;;;;5078068;28;20327;-82
2022/08/05 19:35:36;;;;;;;33.55;26.70;;;;;;;;;;5076808;28;20456;-82
2022/08/05 19:38:02;;;;;;;31.67;22.25;;;;;;;;;;5077675;28;20074;-82
2022/08/05 19:40:29;;;;;;;36.47;25.30;;;;;;;;;;5076288;28;20049;-82
2022/08/05 19:42:55;;;;;;;52.58;38.83;;;;;;;;;;5076795;28;20323;-82
2022/08/05 19:45:21;;;;;;;49.05;36.38;;;;;;;;;;5077688;28;20403;-82
2022/08/05 19:47:47;;;;;;;49.08;37.05;;;;;;;;;;5077814;28;20021;-83
2022/08/05 19:50:13;;;;;;;24.55;16.92;;;;;;;;;;5075877;28;20040;-82
2022/08/05 19:52:39;;;;;;;12.65;7.13;;;;;;;;;;5077528;28;20020;-82
2022/08/05 19:55:05;;;;;;;9.82;5.35;;;;;;;;;;5077414;28;20104;-85
2022/08/05 19:57:31;;;;;;;12.55;5.80;;;;;;;;;;5077809;28;20133;-83
2022/08/05 19:59:57;;;;;;;9.43;5.35;;;;;;;;;;5077600;28;20024;-82
2022/08/05 20:02:24;;;;;;;13.77;4.47;;;;;;;;;;5076456;28;20331;-82
2022/08/05 20:04:50;;;;;;;11.43;4.85;;;;;;;;;;5077432;28;20433;-83
2022/08/05 20:07:16;;;;;;;9.13;5.53;;;;;;;;;;5077411;28;20024;-82
2022/08/05 20:09:42;;;;;;;11.68;4.93;;;;;;;;;;5076192;28;20031;-82
2022/08/05 20:12:09;;;;;;;12.65;4.95;;;;;;;;;;5077295;28;20027;-82
2022/08/05 20:14:35;;;;;;;14.57;4.85;;;;;;;;;;5077349;28;20021;-82
2022/08/05 20:17:04;;;;;;;10.27;4.47;;;;;;;;;;5077358;28;20107;-82
2022/08/05 20:19:30;;;;;;;12.00;4.40;;;;;;;;;;5077371;28;20024;-82
2022/08/05 20:21:56;;;;;;;12.05;4.50;;;;;;;;;;5077142;28;20021;-82
2022/08/05 20:24:23;;;;;;;12.35;4.30;;;;;;;;;;5076145;28;20028;-82
2022/08/05 20:26:51;;;;;;;17.45;4.53;;;;;;;;;;5076241;28;20429;-82
2022/08/05 20:29:17;;;;;;;15.63;4.60;;;;;;;;;;5077311;28;20045;-82
2022/08/05 20:31:43;;;;;;;8.52;5.20;;;;;;;;;;5077367;28;20028;-82
2022/08/05 20:34:10;;;;;;;11.30;5.03;;;;;;;;;;5077326;28;20435;-82
2022/08/05 20:36:36;;;;;;;12.82;4.60;;;;;;;;;;5077161;28;20329;-82
2022/08/05 20:39:02;;;;;;;14.20;4.95;;;;;;;;;;5077070;28;20386;-82
2022/08/05 20:41:28;;;;;;;11.63;4.90;;;;;;;;;;5076751;28;20040;-82
2022/08/05 20:43:55;;;;;;;11.57;4.18;;;;;;;;;;5077243;28;20024;-82
2022/08/05 20:46:21;;;;;;;21.25;5.25;;;;;;;;;;5076903;28;20028;-82
2022/08/05 20:48:47;;;;;;;13.43;4.63;;;;;;;;;;5076959;28;20070;-82
2022/08/05 20:51:14;;;;;;;12.27;4.45;;;;;;;;;;5077008;28;20028;-82
2022/08/05 20:53:40;;;;;;;13.48;4.32;;;;;;;;;;5076962;28;20039;-82
2022/08/05 20:56:07;;;;;;;10.05;4.40;;;;;;;;;;5077275;28;20021;-82
2022/08/05 20:58:33;;;;;;;12.35;4.40;;;;;;;;;;5077211;28;20108;-82
2022/08/05 21:01:01;;;;;;;10.50;3.90;;;;;;;;;;5075711;28;20163;-83
2022/08/05 21:03:27;;;;;;;10.88;3.75;;;;;;;;;;5079962;28;20138;-82
2022/08/05 21:05:53;;;;;;;10.82;4.82;;;;;;;;;;5080890;28;20350;-82
2022/08/05 21:08:19;;;;;;;10.02;4.07;;;;;;;;;;5080668;28;20070;-83
2022/08/05 21:10:46;;;;;;;10.20;4.03;;;;;;;;;;5080808;28;20037;-82
2022/08/05 21:13:12;;;;;;;14.38;4.35;;;;;;;;;;5080883;28;20036;-82
2022/08/05 21:15:38;;;;;;;12.77;4.35;;;;;;;;;;5080741;28;20059;-82
2022/08/05 21:18:04;;;;;;;17.52;4.38;;;;;;;;;;5080736;28;20028;-82
2022/08/05 21:20:30;;;;;;;14.00;4.20;;;;;;;;;;5080636;28;20295;-82
2022/08/05 21:22:56;;;;;;;7.82;4.35;;;;;;;;;;5080506;28;20024;-82
2022/08/05 21:25:22;;;;;;;16.42;3.90;;;;;;;;;;5080540;28;20159;-82
2022/08/05 21:27:48;;;;;;;18.33;4.28;;;;;;;;;;5079592;28;20017;-82
2022/08/05 21:30:14;;;;;;;8.55;3.92;;;;;;;;;;5080130;28;20025;-82
2022/08/05 21:32:40;;;;;;;8.00;4.15;;;;;;;;;;5080481;28;20024;-82
2022/08/05 21:35:06;;;;;;;9.35;4.18;;;;;;;;;;5080426;28;20029;-82
2022/08/05 21:37:32;;;;;;;15.05;4.30;;;;;;;;;;5080236;28;20024;-82
2022/08/05 21:39:58;;;;;;;13.20;3.97;;;;;;;;;;5078822;28;20041;-83
2022/08/05 21:42:24;;;;;;;14.27;3.90;;;;;;;;;;5080027;28;20025;-82
2022/08/05 21:44:50;;;;;;;9.43;4.15;;;;;;;;;;5080170;28;20031;-82
2022/08/05 21:47:16;;;;;;;15.93;4.78;;;;;;;;;;5080163;28;20020;-82
2022/08/05 21:49:42;;;;;;;13.20;4.47;;;;;;;;;;5080412;28;20427;-78
2022/08/05 21:52:09;;;;;;;16.23;4.35;;;;;;;;;;5079692;28;20510;-78
2022/08/05 21:54:37;;;;;;;12.25;4.80;;;;;;;;;;5079724;28;20021;-79
2022/08/05 21:57:03;;;;;;;13.98;5.15;;;;;;;;;;5078745;28;20024;-79
2022/08/05 21:59:29;;;;;;;12.52;6.22;;;;;;;;;;5079740;28;20049;-78
2022/08/05 22:01:55;;;;;;;7.15;5.05;;;;;;;;;;5078669;28;20063;-78
2022/08/05 22:04:21;;;;;;;16.52;5.63;;;;;;;;;;5079890;28;20036;-78
2022/08/05 22:06:47;;;;;;;16.30;5.50;;;;;;;;;;5079621;28;20023;-78
2022/08/05 22:09:13;;;;;;;8.65;4.85;;;;;;;;;;5079440;28;20031;-78
2022/08/05 22:11:39;;;;;;;10.10;4.68;;;;;;;;;;5079853;28;20086;-78
2022/08/05 22:14:06;;;;;;;10.40;4.13;;;;;;;;;;5079185;28;20036;-77
2022/08/05 22:16:32;;;;;;;11.07;4.80;;;;;;;;;;5079521;28;20020;-78
2022/08/05 22:18:58;;;;;;;8.25;3.60;;;;;;;;;;5079470;28;20031;-78
2022/08/05 22:21:24;;;;;;;10.23;4.10;;;;;;;;;;5079274;28;20033;-78
2022/08/05 22:29:21;;;;;;;9.32;3.92;;;;;;;;;;5037422;28;20032;-78
2022/08/05 22:31:47;;;;;;;5.70;3.97;;;;;;;;;;5037416;28;20418;-78
2022/08/05 22:34:13;;;;;;;5.43;4.10;;;;;;;;;;5037269;28;20049;-78
2022/08/05 22:36:39;;;;;;;8.43;4.65;;;;;;;;;;5037342;28;20120;-78
2022/08/05 22:39:05;;;;;;;10.88;4.00;;;;;;;;;;5037063;28;20050;-78
2022/08/05 22:41:31;;;;;;;9.10;4.15;;;;;;;;;;5036955;28;20041;-78
2022/08/05 22:43:58;;;;;;;7.45;3.75;;;;;;;;;;5037036;28;20307;-78
2022/08/05 22:46:24;;;;;;;8.27;4.47;;;;;;;;;;5037089;28;20117;-77
2022/08/05 22:48:50;;;;;;;6.97;4.20;;;;;;;;;;5037014;28;20025;-78
2022/08/05 22:51:16;;;;;;;10.50;4.22;;;;;;;;;;5036846;28;20063;-78
2022/08/05 22:53:42;;;;;;;9.82;4.10;;;;;;;;;;5036849;28;20055;-78
2022/08/05 22:56:08;;;;;;;6.82;4.07;;;;;;;;;;5036795;28;20435;-78
2022/08/05 22:58:34;;;;;;;9.20;4.63;;;;;;;;;;5036820;28;20041;-78
2022/08/05 23:01:00;;;;;;;7.97;4.57;;;;;;;;;;5036876;28;20042;-78
2022/08/05 23:03:26;;;;;;;18.38;5.40;;;;;;;;;;5036727;28;20048;-78
2022/08/05 23:05:54;;;;;;;10.30;4.75;;;;;;;;;;5048404;28;20074;-78
2022/08/05 23:08:21;;;;;;;14.73;4.72;;;;;;;;;;5078438;28;20029;-78
2022/08/05 23:10:47;;;;;;;8.40;4.43;;;;;;;;;;5077192;28;20131;-78
2022/08/05 23:13:13;;;;;;;11.90;4.60;;;;;;;;;;5078467;28;20024;-77
2022/08/05 23:15:39;;;;;;;10.18;4.55;;;;;;;;;;5078327;28;20029;-77
2022/08/05 23:18:05;;;;;;;10.10;5.05;;;;;;;;;;5078299;28;20033;-78
2022/08/05 23:20:31;;;;;;;9.38;5.63;;;;;;;;;;5078067;28;20029;-78
2022/08/05 23:22:58;;;;;;;9.70;4.95;;;;;;;;;;5078073;28;20024;-78
2022/08/05 23:25:24;;;;;;;8.77;4.57;;;;;;;;;;5077239;28;20303;-78
2022/08/05 23:27:50;;;;;;;7.80;4.72;;;;;;;;;;5078059;28;20021;-78
2022/08/05 23:30:16;;;;;;;8.75;4.68;;;;;;;;;;5078128;28;20033;-78
2022/08/05 23:32:42;;;;;;;12.88;4.90;;;;;;;;;;5077961;28;20021;-78
2022/08/05 23:35:08;;;;;;;10.00;4.55;;;;;;;;;;5077898;28;20052;-78
2022/08/05 23:37:34;;;;;;;9.63;5.38;;;;;;;;;;5077752;28;20321;-78
2022/08/05 23:40:00;;;;;;;11.85;5.57;;;;;;;;;;5077139;28;20466;-78
2022/08/05 23:42:26;;;;;;;12.10;5.25;;;;;;;;;;5077673;28;20345;-78
2022/08/05 23:44:52;;;;;;;11.65;4.82;;;;;;;;;;5076666;28;20032;-78
2022/08/05 23:47:18;;;;;;;11.43;5.10;;;;;;;;;;5077600;28;20062;-77
2022/08/05 23:49:45;;;;;;;14.25;5.35;;;;;;;;;;5077643;28;20024;-78
2022/08/05 23:52:31;;;;;;;14.13;4.90;;;;;;;;;;5077641;28;20032;-78
2022/08/05 23:54:57;;;;;;;8.90;4.60;;;;;;;;;;5077446;28;20028;-78
2022/08/05 23:57:24;;;;;;;8.55;4.90;;;;;;;;;;5077543;28;20024;-78
2022/08/05 23:59:50;;;;;;;10.05;4.85;;;;;;;;;;5076678;28;20335;-78
